CSH9257 ZSPD-ZSAM
Flight info
| Callsign | CSH9257 |
|---|---|
| Flight time | N/A |
| Altitude | 25600 |
| Route | NXD81D/17L NXD W131 AKDIM A470 ENVEN |
| Aircraft | B738/M-SDE2E3FGHIRWXY/LB1 |
Departure
| Time | N/A |
|---|---|
| Airport | Shanghai Pudong International Airport (ZSPD) |
Arrival
| Time | 2026-05-04 14:08 |
|---|---|
| Airport | Xiamen Gaoqi International Airport (ZSAM) |
| Time | Latitude | Longitude | Altitude | Speed | Heading |
|---|---|---|---|---|---|
| 2026-05-04 13:41 | 25.43968 | 119.03280 | 25741 ft | 387 kts | 230° |
| 2026-05-04 13:41 | 25.41481 | 119.00369 | 25736 ft | 389 kts | 230° |
| 2026-05-04 13:42 | 25.38404 | 118.96774 | 25734 ft | 388 kts | 230° |
| 2026-05-04 13:42 | 25.35939 | 118.93908 | 25736 ft | 387 kts | 230° |
| 2026-05-04 13:42 | 25.34710 | 118.92477 | 25737 ft | 387 kts | 230° |
| 2026-05-04 13:42 | 25.32853 | 118.90292 | 25731 ft | 385 kts | 230° |
| 2026-05-04 13:43 | 25.31032 | 118.88100 | 25724 ft | 388 kts | 231° |
| 2026-05-04 13:43 | 25.29217 | 118.85890 | 25726 ft | 389 kts | 231° |
| 2026-05-04 13:43 | 25.27422 | 118.83701 | 25726 ft | 387 kts | 231° |
| 2026-05-04 13:43 | 25.25601 | 118.81490 | 25723 ft | 388 kts | 231° |
| 2026-05-04 13:44 | 25.23775 | 118.79284 | 25726 ft | 389 kts | 231° |
| 2026-05-04 13:44 | 25.21952 | 118.77081 | 25718 ft | 391 kts | 231° |
| 2026-05-04 13:44 | 25.20112 | 118.74855 | 25722 ft | 390 kts | 231° |
| 2026-05-04 13:44 | 25.18295 | 118.72659 | 25721 ft | 389 kts | 231° |
| 2026-05-04 13:45 | 25.16480 | 118.70469 | 25643 ft | 383 kts | 231° |
| 2026-05-04 13:45 | 25.14701 | 118.68326 | 25292 ft | 373 kts | 231° |
| 2026-05-04 13:45 | 25.12979 | 118.66249 | 25000 ft | 362 kts | 231° |
| 2026-05-04 13:45 | 25.10758 | 118.63573 | 24535 ft | 353 kts | 231° |
| 2026-05-04 13:46 | 25.09645 | 118.62228 | 24211 ft | 361 kts | 232° |
| 2026-05-04 13:46 | 25.07921 | 118.60165 | 23662 ft | 373 kts | 231° |
| 2026-05-04 13:46 | 25.06139 | 118.58091 | 23112 ft | 374 kts | 230° |
| 2026-05-04 13:46 | 25.04345 | 118.56035 | 22550 ft | 369 kts | 231° |
| 2026-05-04 13:47 | 25.02571 | 118.54012 | 21998 ft | 365 kts | 230° |
| 2026-05-04 13:47 | 25.00242 | 118.51357 | 21253 ft | 360 kts | 230° |
| 2026-05-04 13:47 | 24.99081 | 118.50034 | 20878 ft | 358 kts | 231° |
| 2026-05-04 13:47 | 24.97357 | 118.48045 | 20324 ft | 360 kts | 231° |
| 2026-05-04 13:48 | 24.95641 | 118.46071 | 19773 ft | 356 kts | 231° |
| 2026-05-04 13:48 | 24.93948 | 118.44128 | 19299 ft | 349 kts | 230° |
| 2026-05-04 13:48 | 24.92285 | 118.42226 | 18988 ft | 339 kts | 230° |
| 2026-05-04 13:48 | 24.90683 | 118.40391 | 18813 ft | 325 kts | 231° |
| 2026-05-04 13:49 | 24.89155 | 118.38640 | 18698 ft | 311 kts | 231° |
| 2026-05-04 13:49 | 24.87199 | 118.36391 | 18530 ft | 294 kts | 231° |
| 2026-05-04 13:49 | 24.86295 | 118.35305 | 18449 ft | 284 kts | 235° |
| 2026-05-04 13:49 | 24.85037 | 118.32900 | 18292 ft | 263 kts | 255° |
| 2026-05-04 13:50 | 24.84875 | 118.31594 | 18151 ft | 259 kts | 269° |
| 2026-05-04 13:50 | 24.85313 | 118.29015 | 17757 ft | 258 kts | 284° |
| 2026-05-04 13:50 | 24.85791 | 118.27817 | 17562 ft | 260 kts | 294° |
| 2026-05-04 13:50 | 24.86874 | 118.26204 | 17260 ft | 264 kts | 303° |
| 2026-05-04 13:51 | 24.88077 | 118.24706 | 16953 ft | 260 kts | 302° |
| 2026-05-04 13:51 | 24.89092 | 118.23096 | 16670 ft | 252 kts | 294° |
| 2026-05-04 13:51 | 24.89894 | 118.21416 | 16386 ft | 247 kts | 290° |
| 2026-05-04 13:51 | 24.90643 | 118.19707 | 16090 ft | 245 kts | 290° |
| 2026-05-04 13:52 | 24.92097 | 118.16399 | 15549 ft | 237 kts | 288° |
| 2026-05-04 13:52 | 24.92629 | 118.14696 | 15293 ft | 231 kts | 282° |
| 2026-05-04 13:52 | 24.93015 | 118.13009 | 15023 ft | 228 kts | 280° |
| 2026-05-04 13:53 | 24.93379 | 118.11311 | 14754 ft | 225 kts | 280° |
| 2026-05-04 13:53 | 24.93872 | 118.09118 | 14457 ft | 220 kts | 281° |
| 2026-05-04 13:53 | 24.94225 | 118.07474 | 14248 ft | 221 kts | 279° |
| 2026-05-04 13:54 | 24.94425 | 118.04546 | 13799 ft | 239 kts | 270° |
| 2026-05-04 13:54 | 24.94408 | 118.02713 | 13540 ft | 236 kts | 266° |
| 2026-05-04 13:54 | 24.93155 | 117.99529 | 12995 ft | 244 kts | 225° |
| 2026-05-04 13:55 | 24.91634 | 117.98626 | 12720 ft | 251 kts | 206° |
| 2026-05-04 13:55 | 24.87963 | 117.98395 | 12111 ft | 290 kts | 180° |
| 2026-05-04 13:55 | 24.85942 | 117.98685 | 11776 ft | 293 kts | 179° |
| 2026-05-04 13:56 | 24.83928 | 117.98917 | 11336 ft | 293 kts | 180° |
| 2026-05-04 13:56 | 24.81893 | 117.99133 | 10970 ft | 292 kts | 180° |
| 2026-05-04 13:56 | 24.77900 | 117.99500 | 10319 ft | 285 kts | 182° |
| 2026-05-04 13:57 | 24.75912 | 117.99665 | 9987 ft | 282 kts | 181° |
| 2026-05-04 13:57 | 24.73320 | 117.99896 | 9550 ft | 279 kts | 181° |
| 2026-05-04 13:58 | 24.68228 | 118.00412 | 8716 ft | 273 kts | 179° |
| 2026-05-04 13:58 | 24.64481 | 118.00730 | 8105 ft | 266 kts | 179° |
| 2026-05-04 13:58 | 24.62658 | 118.00897 | 7808 ft | 264 kts | 178° |
| 2026-05-04 13:59 | 24.60825 | 118.01078 | 7501 ft | 263 kts | 176° |
| 2026-05-04 13:59 | 24.58392 | 118.01353 | 7095 ft | 260 kts | 180° |
| 2026-05-04 13:59 | 24.55627 | 118.00458 | 6616 ft | 249 kts | 222° |
| 2026-05-04 14:00 | 24.54075 | 117.98635 | 6247 ft | 244 kts | 232° |
| 2026-05-04 14:00 | 24.52236 | 117.96277 | 5785 ft | 242 kts | 230° |
| 2026-05-04 14:00 | 24.50747 | 117.94453 | 5426 ft | 241 kts | 230° |
| 2026-05-04 14:01 | 24.49612 | 117.93087 | 5142 ft | 240 kts | 229° |
| 2026-05-04 14:01 | 24.48860 | 117.92179 | 4965 ft | 239 kts | 229° |
| 2026-05-04 14:01 | 24.46218 | 117.90078 | 4680 ft | 234 kts | 188° |
| 2026-05-04 14:02 | 24.44652 | 117.90301 | 4548 ft | 221 kts | 152° |
| 2026-05-04 14:02 | 24.43114 | 117.91618 | 4340 ft | 207 kts | 134° |
| 2026-05-04 14:02 | 24.42403 | 117.92331 | 4200 ft | 205 kts | 133° |
| 2026-05-04 14:02 | 24.41611 | 117.94041 | 3982 ft | 184 kts | 84° |
| 2026-05-04 14:03 | 24.42042 | 117.95293 | 3763 ft | 177 kts | 52° |
| 2026-05-04 14:03 | 24.42557 | 117.96009 | 3582 ft | 177 kts | 52° |
| 2026-05-04 14:03 | 24.43251 | 117.97111 | 3360 ft | 173 kts | 55° |
| 2026-05-04 14:03 | 24.43943 | 117.98181 | 3106 ft | 171 kts | 52° |
| 2026-05-04 14:04 | 24.45526 | 118.00406 | 2604 ft | 144 kts | 52° |
| 2026-05-04 14:04 | 24.46110 | 118.01228 | 2419 ft | 132 kts | 52° |
| 2026-05-04 14:04 | 24.46677 | 118.02021 | 2235 ft | 130 kts | 52° |
| 2026-05-04 14:05 | 24.47939 | 118.03694 | 1845 ft | 144 kts | 53° |
| 2026-05-04 14:05 | 24.48329 | 118.04259 | 1713 ft | 133 kts | 52° |
| 2026-05-04 14:05 | 24.48890 | 118.05044 | 1549 ft | 130 kts | 52° |
| 2026-05-04 14:06 | 24.49448 | 118.05829 | 1375 ft | 131 kts | 52° |
| 2026-05-04 14:06 | 24.50211 | 118.06898 | 1141 ft | 134 kts | 52° |
| 2026-05-04 14:06 | 24.50596 | 118.07434 | 1017 ft | 134 kts | 52° |
| 2026-05-04 14:06 | 24.51169 | 118.08240 | 883 ft | 136 kts | 51° |
| 2026-05-04 14:07 | 24.51784 | 118.09077 | 688 ft | 141 kts | 51° |
| 2026-05-04 14:07 | 24.52381 | 118.09920 | 503 ft | 140 kts | 52° |
| 2026-05-04 14:07 | 24.53173 | 118.11047 | 260 ft | 138 kts | 51° |
| 2026-05-04 14:07 | 24.53580 | 118.11597 | 123 ft | 137 kts | 50° |
| 2026-05-04 14:08 | 24.54310 | 118.12620 | 52 ft | 102 kts | 52° |
| 2026-05-04 14:08 | 24.54531 | 118.12929 | 46 ft | 52 kts | 52° |
| 2026-05-04 14:08 | 24.54739 | 118.13219 | 44 ft | 32 kts | 52° |
| 2026-05-04 14:08 | 24.54843 | 118.13368 | 41 ft | 23 kts | 54° |
| 2026-05-04 14:09 | 24.54933 | 118.13657 | 37 ft | 10 kts | 86° |
| 2026-05-04 14:09 | 24.54911 | 118.13705 | 36 ft | 9 kts | 137° |
| 2026-05-04 14:10 | 24.54825 | 118.13781 | 36 ft | 8 kts | 142° |
| 2026-05-04 14:10 | 24.54782 | 118.13818 | 35 ft | 8 kts | 141° |
| 2026-05-04 14:10 | 24.54749 | 118.13847 | 34 ft | 7 kts | 141° |
| 2026-05-04 14:10 | 24.54720 | 118.13888 | 33 ft | 6 kts | 95° |
| 2026-05-04 14:11 | 24.54751 | 118.13947 | 31 ft | 4 kts | 51° |
| 2026-05-04 14:11 | 24.54759 | 118.13957 | 30 ft | 0 kts | 51° |